SBSPSBLO

Guest
Details From SBSP - Sao Paulo Congonhas
To SBLO - Londrina
Flight Number -
Tags decoded
Created
Modified
Stats Distance 288 nm / 533 km
Max Altitude 0 ft / 0 m
Waypoints 4
Social Downloads 3
Likes 0
Share VATSIM

Download

Looking for another format? Having issues loading an existing format? Contact us
Advertisement - Login to hide

Notes

Requested: SBSP SCB BRU SBLO

Route

SBSP SCB BRU SBLO

ID Type Via Altitude Latitude Longitude Leg Dist Tot Dist Heading (true) Name
O SBSP APT - 0 ft / 0 m -23.62669˚ -46.65538˚ - 0 nm - Sao Paulo Congonhas
SCB VOR - 0 ft / 0 m -23.50700˚ -47.37817˚ 40 nm 40 nm 280° / 280° SOROCABA VOR-DME
BRU NDB - 0 ft / 0 m -22.31400˚ -49.10717˚ 119 nm 159 nm 306° / 307° BAURU NDB
O SBLO APT - 0 ft / 0 m -23.33362˚ -51.13007˚ 127 nm 287 nm 241° / 242° Londrina

Altitude Profile

Advertisement - Login to hide

Weather


0- 5 10 15 20 25 30 35+ Temperature / ° C

Clouds and Precipitation
Forecast for 2017-12-13 12:00 UTC. Updated 2 hours ago

Ground ~20,000 ft ~40,000 ft Winds

SBSP

Details ICAO SBSP (CGH)
Name Sao Paulo Congonhas
Region Brazil
Timezone America/Sao_Paulo (UTC-2.0)
Stats Elevation 2,631 ft / 802 m (AMSL)
Location -23.626693° -46.655377°
Runways 2
Magnetic Variation 21.294° W

METAR

SBSP 131100Z 09007KT 9999 SCT013 BKN015 18/14 Q1021

Decode

TAF

TAF SBSP 130109Z 1306/1406 09005KT 9999 OVC009TN16/1309Z TX27/1317Z PROB30 1306/1311 6000 OVC006 BECMG 1311/1313 10005KT SCT015 BECMG 1314/1316 17008KT FEW045 PROB30 1316/1320 BKN009 BECMG 1321/1323 10004KT CAVOK BECMG 1400/1402 08005KT RMK PHM

Decode

Departure Runways

ID Width Length Bearing (true) Bearing (mag) Surface Threshold Offset Overrun Length
17L 147 ft / 45 m 4,726 ft / 1,441 m 147.28° 168.57° Asphalt 0 ft / 0 m 220 ft / 67 m
17R 147 ft / 45 m 6,406 ft / 1,953 m 147.39° 168.68° Asphalt 413 ft / 126 m 0 ft / 0 m
35L 147 ft / 45 m 6,406 ft / 1,953 m 327.38° 348.67° Asphalt 200 ft / 61 m 0 ft / 0 m
35R 147 ft / 45 m 4,726 ft / 1,441 m 327.28° 348.57° Asphalt 0 ft / 0 m 0 ft / 0 m

SBLO

Details ICAO SBLO (LDB)
Name Londrina
Region Brazil
Timezone America/Sao_Paulo (UTC-2.0)
Stats Elevation 1,867 ft / 569 m (AMSL)
Location -23.333624° -51.130072°
Runways 1
Magnetic Variation 19.073° W

METAR

SBLO 131100Z 12009KT CAVOK 22/16 Q1018

Decode

TAF

TAF TAF SBLO 130030Z 1306/1318 12015KT CAVOK TN17/1308Z TX32/1317Z RMK PEB

Decode

Destination Runways

ID Width Length Bearing (true) Bearing (mag) Surface Threshold Offset Overrun Length
13 148 ft / 45 m 6,926 ft / 2,111 m 110.29° 129.36° Asphalt 975 ft / 297 m 0 ft / 0 m
31 148 ft / 45 m 6,926 ft / 2,111 m 290.28° 309.35° Asphalt 0 ft / 0 m 100 ft / 30 m

Popular Alternatives